sensor_id;sensor_type;location;lat;lon;timestamp;P1;durP1;ratioP1;P2;durP2;ratioP2
21639;SDS011;10981;45.462;10.974;2023-03-31T00:01:12;44.60;;;25.38;;
21639;SDS011;10981;45.462;10.974;2023-03-31T00:03:40;41.42;;;24.65;;
21639;SDS011;10981;45.462;10.974;2023-03-31T00:06:11;38.83;;;24.98;;
21639;SDS011;10981;45.462;10.974;2023-03-31T00:08:45;45.80;;;27.02;;
21639;SDS011;10981;45.462;10.974;2023-03-31T00:13:47;34.75;;;23.95;;
21639;SDS011;10981;45.462;10.974;2023-03-31T00:16:16;39.10;;;24.70;;
21639;SDS011;10981;45.462;10.974;2023-03-31T00:18:44;40.25;;;25.02;;
21639;SDS011;10981;45.462;10.974;2023-03-31T00:21:14;44.13;;;25.33;;
21639;SDS011;10981;45.462;10.974;2023-03-31T00:23:55;45.35;;;25.35;;
21639;SDS011;10981;45.462;10.974;2023-03-31T00:26:24;41.88;;;25.30;;
21639;SDS011;10981;45.462;10.974;2023-03-31T00:28:54;39.15;;;24.20;;
21639;SDS011;10981;45.462;10.974;2023-03-31T00:31:23;39.45;;;24.55;;
21639;SDS011;10981;45.462;10.974;2023-03-31T00:33:53;35.55;;;23.58;;
21639;SDS011;10981;45.462;10.974;2023-03-31T00:36:23;45.63;;;25.88;;
21639;SDS011;10981;45.462;10.974;2023-03-31T00:38:55;39.67;;;26.10;;
21639;SDS011;10981;45.462;10.974;2023-03-31T00:41:28;43.88;;;24.98;;
21639;SDS011;10981;45.462;10.974;2023-03-31T00:44:01;42.67;;;26.45;;
21639;SDS011;10981;45.462;10.974;2023-03-31T00:46:55;38.60;;;25.17;;
21639;SDS011;10981;45.462;10.974;2023-03-31T00:52:02;42.78;;;24.73;;
21639;SDS011;10981;45.462;10.974;2023-03-31T00:54:41;45.55;;;25.23;;
21639;SDS011;10981;45.462;10.974;2023-03-31T00:57:13;43.97;;;25.93;;
21639;SDS011;10981;45.462;10.974;2023-03-31T00:59:44;40.08;;;25.02;;
21639;SDS011;10981;45.462;10.974;2023-03-31T01:02:15;36.70;;;24.50;;
21639;SDS011;10981;45.462;10.974;2023-03-31T01:04:56;39.08;;;24.27;;
21639;SDS011;10981;45.462;10.974;2023-03-31T01:07:31;34.47;;;24.20;;
21639;SDS011;10981;45.462;10.974;2023-03-31T01:10:09;47.10;;;24.33;;
21639;SDS011;10981;45.462;10.974;2023-03-31T01:12:38;40.17;;;23.80;;
21639;SDS011;10981;45.462;10.974;2023-03-31T01:15:09;38.30;;;25.13;;
21639;SDS011;10981;45.462;10.974;2023-03-31T01:17:39;36.17;;;24.55;;
21639;SDS011;10981;45.462;10.974;2023-03-31T01:28:47;38.67;;;25.45;;
21639;SDS011;10981;45.462;10.974;2023-03-31T01:31:49;38.65;;;24.80;;
21639;SDS011;10981;45.462;10.974;2023-03-31T01:37:47;40.20;;;23.70;;
21639;SDS011;10981;45.462;10.974;2023-03-31T01:46:34;42.20;;;25.13;;
21639;SDS011;10981;45.462;10.974;2023-03-31T01:49:19;45.47;;;25.77;;
21639;SDS011;10981;45.462;10.974;2023-03-31T01:52:11;48.90;;;27.70;;
21639;SDS011;10981;45.462;10.974;2023-03-31T01:54:54;41.35;;;24.55;;
21639;SDS011;10981;45.462;10.974;2023-03-31T02:00:33;42.42;;;25.63;;
21639;SDS011;10981;45.462;10.974;2023-03-31T02:03:20;47.25;;;26.55;;
21639;SDS011;10981;45.462;10.974;2023-03-31T02:05:56;48.28;;;27.02;;
21639;SDS011;10981;45.462;10.974;2023-03-31T02:08:37;39.83;;;24.77;;
21639;SDS011;10981;45.462;10.974;2023-03-31T02:11:13;40.42;;;26.50;;
21639;SDS011;10981;45.462;10.974;2023-03-31T02:13:44;39.85;;;24.92;;
21639;SDS011;10981;45.462;10.974;2023-03-31T02:16:15;44.08;;;25.05;;
21639;SDS011;10981;45.462;10.974;2023-03-31T02:18:51;39.35;;;25.52;;
21639;SDS011;10981;45.462;10.974;2023-03-31T02:21:30;41.10;;;26.05;;
21639;SDS011;10981;45.462;10.974;2023-03-31T02:24:05;42.17;;;26.88;;
21639;SDS011;10981;45.462;10.974;2023-03-31T02:27:22;44.42;;;27.08;;
21639;SDS011;10981;45.462;10.974;2023-03-31T02:29:36;41.03;;;26.23;;
21639;SDS011;10981;45.462;10.974;2023-03-31T02:34:40;38.22;;;25.55;;
21639;SDS011;10981;45.462;10.974;2023-03-31T02:37:08;47.08;;;26.98;;
21639;SDS011;10981;45.462;10.974;2023-03-31T02:39:39;44.88;;;26.00;;
21639;SDS011;10981;45.462;10.974;2023-03-31T02:42:11;41.92;;;26.92;;
21639;SDS011;10981;45.462;10.974;2023-03-31T02:44:41;43.58;;;25.98;;
21639;SDS011;10981;45.462;10.974;2023-03-31T02:47:13;49.47;;;29.45;;
21639;SDS011;10981;45.462;10.974;2023-03-31T02:49:53;46.33;;;28.23;;
21639;SDS011;10981;45.462;10.974;2023-03-31T03:05:50;49.67;;;26.55;;
21639;SDS011;10981;45.462;10.974;2023-03-31T03:11:38;45.10;;;28.15;;
21639;SDS011;10981;45.462;10.974;2023-03-31T03:14:27;42.50;;;26.77;;
21639;SDS011;10981;45.462;10.974;2023-03-31T03:17:01;50.15;;;29.10;;
21639;SDS011;10981;45.462;10.974;2023-03-31T03:19:40;44.47;;;27.50;;
21639;SDS011;10981;45.462;10.974;2023-03-31T03:22:08;45.92;;;28.65;;
21639;SDS011;10981;45.462;10.974;2023-03-31T03:24:36;47.15;;;29.67;;
21639;SDS011;10981;45.462;10.974;2023-03-31T03:27:05;47.00;;;29.35;;
21639;SDS011;10981;45.462;10.974;2023-03-31T03:29:34;54.00;;;28.42;;
21639;SDS011;10981;45.462;10.974;2023-03-31T03:32:05;42.72;;;29.30;;
21639;SDS011;10981;45.462;10.974;2023-03-31T03:34:33;49.63;;;28.42;;
21639;SDS011;10981;45.462;10.974;2023-03-31T03:37:01;44.72;;;28.10;;
21639;SDS011;10981;45.462;10.974;2023-03-31T03:39:29;48.65;;;28.15;;
21639;SDS011;10981;45.462;10.974;2023-03-31T03:41:58;49.65;;;29.85;;
21639;SDS011;10981;45.462;10.974;2023-03-31T03:44:26;48.40;;;29.15;;
21639;SDS011;10981;45.462;10.974;2023-03-31T03:46:57;45.53;;;28.10;;
21639;SDS011;10981;45.462;10.974;2023-03-31T03:49:28;50.47;;;28.73;;
21639;SDS011;10981;45.462;10.974;2023-03-31T03:51:57;47.22;;;27.75;;
21639;SDS011;10981;45.462;10.974;2023-03-31T03:54:25;48.83;;;29.23;;
21639;SDS011;10981;45.462;10.974;2023-03-31T03:56:53;54.42;;;29.20;;
21639;SDS011;10981;45.462;10.974;2023-03-31T03:59:21;48.60;;;27.92;;
21639;SDS011;10981;45.462;10.974;2023-03-31T04:01:50;46.33;;;28.30;;
21639;SDS011;10981;45.462;10.974;2023-03-31T04:04:18;48.35;;;27.17;;
21639;SDS011;10981;45.462;10.974;2023-03-31T04:06:47;45.72;;;29.83;;
21639;SDS011;10981;45.462;10.974;2023-03-31T04:09:15;49.80;;;27.55;;
21639;SDS011;10981;45.462;10.974;2023-03-31T04:11:43;45.92;;;26.98;;
21639;SDS011;10981;45.462;10.974;2023-03-31T04:14:11;48.17;;;28.90;;
21639;SDS011;10981;45.462;10.974;2023-03-31T04:16:39;47.33;;;27.63;;
21639;SDS011;10981;45.462;10.974;2023-03-31T04:19:08;43.80;;;27.55;;
21639;SDS011;10981;45.462;10.974;2023-03-31T04:21:39;48.85;;;27.88;;
21639;SDS011;10981;45.462;10.974;2023-03-31T04:24:11;53.25;;;28.90;;
21639;SDS011;10981;45.462;10.974;2023-03-31T04:26:59;43.17;;;28.08;;
21639;SDS011;10981;45.462;10.974;2023-03-31T04:29:29;49.47;;;29.85;;
21639;SDS011;10981;45.462;10.974;2023-03-31T04:32:00;55.40;;;30.48;;
21639;SDS011;10981;45.462;10.974;2023-03-31T04:34:28;51.20;;;29.63;;
21639;SDS011;10981;45.462;10.974;2023-03-31T04:37:02;48.03;;;29.70;;
21639;SDS011;10981;45.462;10.974;2023-03-31T04:39:31;52.78;;;29.90;;
21639;SDS011;10981;45.462;10.974;2023-03-31T04:41:59;48.80;;;29.92;;
21639;SDS011;10981;45.462;10.974;2023-03-31T04:44:27;55.42;;;31.00;;
21639;SDS011;10981;45.462;10.974;2023-03-31T04:46:56;47.53;;;29.98;;
21639;SDS011;10981;45.462;10.974;2023-03-31T04:49:25;54.25;;;30.02;;
21639;SDS011;10981;45.462;10.974;2023-03-31T04:51:54;53.50;;;31.23;;
21639;SDS011;10981;45.462;10.974;2023-03-31T04:54:22;51.92;;;31.60;;
21639;SDS011;10981;45.462;10.974;2023-03-31T04:56:50;51.33;;;30.88;;
21639;SDS011;10981;45.462;10.974;2023-03-31T04:59:18;53.08;;;31.67;;
21639;SDS011;10981;45.462;10.974;2023-03-31T05:01:46;50.58;;;30.77;;
21639;SDS011;10981;45.462;10.974;2023-03-31T05:04:15;47.47;;;28.45;;
21639;SDS011;10981;45.462;10.974;2023-03-31T05:06:43;51.10;;;29.48;;
21639;SDS011;10981;45.462;10.974;2023-03-31T05:09:11;53.65;;;31.38;;
21639;SDS011;10981;45.462;10.974;2023-03-31T05:11:39;50.15;;;31.63;;
21639;SDS011;10981;45.462;10.974;2023-03-31T05:14:08;55.90;;;32.85;;
21639;SDS011;10981;45.462;10.974;2023-03-31T05:16:36;51.42;;;30.90;;
21639;SDS011;10981;45.462;10.974;2023-03-31T05:19:08;50.10;;;29.52;;
21639;SDS011;10981;45.462;10.974;2023-03-31T05:21:36;47.90;;;29.65;;
21639;SDS011;10981;45.462;10.974;2023-03-31T05:24:05;50.65;;;29.17;;
21639;SDS011;10981;45.462;10.974;2023-03-31T05:26:33;52.67;;;29.50;;
21639;SDS011;10981;45.462;10.974;2023-03-31T05:29:01;53.88;;;32.72;;
21639;SDS011;10981;45.462;10.974;2023-03-31T05:31:29;47.45;;;28.45;;
21639;SDS011;10981;45.462;10.974;2023-03-31T05:34:00;56.00;;;30.88;;
21639;SDS011;10981;45.462;10.974;2023-03-31T05:36:28;51.50;;;31.88;;
21639;SDS011;10981;45.462;10.974;2023-03-31T05:38:58;56.95;;;33.08;;
21639;SDS011;10981;45.462;10.974;2023-03-31T05:41:26;58.08;;;31.98;;
21639;SDS011;10981;45.462;10.974;2023-03-31T05:43:54;51.63;;;30.88;;
21639;SDS011;10981;45.462;10.974;2023-03-31T05:46:22;53.00;;;33.25;;
21639;SDS011;10981;45.462;10.974;2023-03-31T05:48:51;57.72;;;34.92;;
21639;SDS011;10981;45.462;10.974;2023-03-31T05:51:19;54.85;;;32.95;;
21639;SDS011;10981;45.462;10.974;2023-03-31T05:53:49;56.45;;;33.40;;
21639;SDS011;10981;45.462;10.974;2023-03-31T05:56:17;60.25;;;34.63;;
21639;SDS011;10981;45.462;10.974;2023-03-31T05:58:45;57.67;;;32.25;;
21639;SDS011;10981;45.462;10.974;2023-03-31T06:01:15;51.50;;;31.27;;
21639;SDS011;10981;45.462;10.974;2023-03-31T06:03:49;63.33;;;31.42;;
21639;SDS011;10981;45.462;10.974;2023-03-31T06:06:18;52.92;;;32.42;;
21639;SDS011;10981;45.462;10.974;2023-03-31T06:08:46;60.90;;;32.70;;
21639;SDS011;10981;45.462;10.974;2023-03-31T06:11:16;57.38;;;33.10;;
21639;SDS011;10981;45.462;10.974;2023-03-31T06:13:46;56.45;;;33.08;;
21639;SDS011;10981;45.462;10.974;2023-03-31T06:16:15;56.10;;;31.55;;
21639;SDS011;10981;45.462;10.974;2023-03-31T06:18:45;54.28;;;31.83;;
21639;SDS011;10981;45.462;10.974;2023-03-31T06:21:14;55.78;;;32.35;;
21639;SDS011;10981;45.462;10.974;2023-03-31T06:23:44;51.42;;;32.90;;
21639;SDS011;10981;45.462;10.974;2023-03-31T06:26:13;51.38;;;31.33;;
21639;SDS011;10981;45.462;10.974;2023-03-31T06:28:43;56.80;;;32.15;;
21639;SDS011;10981;45.462;10.974;2023-03-31T06:31:13;51.80;;;32.42;;
21639;SDS011;10981;45.462;10.974;2023-03-31T06:33:44;62.50;;;34.10;;
21639;SDS011;10981;45.462;10.974;2023-03-31T06:36:13;57.30;;;34.05;;
21639;SDS011;10981;45.462;10.974;2023-03-31T06:38:43;56.17;;;32.05;;
21639;SDS011;10981;45.462;10.974;2023-03-31T06:41:12;53.35;;;32.03;;
21639;SDS011;10981;45.462;10.974;2023-03-31T06:43:42;55.60;;;32.97;;
21639;SDS011;10981;45.462;10.974;2023-03-31T06:46:11;67.65;;;35.08;;
21639;SDS011;10981;45.462;10.974;2023-03-31T06:48:40;61.42;;;33.92;;
21639;SDS011;10981;45.462;10.974;2023-03-31T06:51:08;59.35;;;33.75;;
21639;SDS011;10981;45.462;10.974;2023-03-31T06:53:37;56.70;;;34.80;;
21639;SDS011;10981;45.462;10.974;2023-03-31T06:56:05;61.17;;;34.58;;
21639;SDS011;10981;45.462;10.974;2023-03-31T06:58:34;57.20;;;33.25;;
21639;SDS011;10981;45.462;10.974;2023-03-31T07:01:03;62.55;;;33.92;;
21639;SDS011;10981;45.462;10.974;2023-03-31T07:03:33;52.60;;;33.15;;
21639;SDS011;10981;45.462;10.974;2023-03-31T07:06:02;52.97;;;32.88;;
21639;SDS011;10981;45.462;10.974;2023-03-31T07:08:30;56.00;;;32.38;;
21639;SDS011;10981;45.462;10.974;2023-03-31T07:10:59;54.20;;;31.85;;
21639;SDS011;10981;45.462;10.974;2023-03-31T07:13:28;53.85;;;33.42;;
21639;SDS011;10981;45.462;10.974;2023-03-31T07:15:56;58.95;;;34.38;;
21639;SDS011;10981;45.462;10.974;2023-03-31T07:18:24;62.20;;;34.53;;
21639;SDS011;10981;45.462;10.974;2023-03-31T07:21:01;57.13;;;33.10;;
21639;SDS011;10981;45.462;10.974;2023-03-31T07:23:35;50.17;;;31.67;;
21639;SDS011;10981;45.462;10.974;2023-03-31T07:26:04;53.65;;;32.63;;
21639;SDS011;10981;45.462;10.974;2023-03-31T07:28:35;67.13;;;35.85;;
21639;SDS011;10981;45.462;10.974;2023-03-31T07:31:09;55.45;;;34.38;;
21639;SDS011;10981;45.462;10.974;2023-03-31T07:33:38;60.40;;;33.58;;
21639;SDS011;10981;45.462;10.974;2023-03-31T07:36:07;54.83;;;31.67;;
21639;SDS011;10981;45.462;10.974;2023-03-31T07:38:41;52.28;;;29.27;;
21639;SDS011;10981;45.462;10.974;2023-03-31T07:41:14;58.05;;;28.48;;
21639;SDS011;10981;45.462;10.974;2023-03-31T07:43:46;51.50;;;29.35;;
21639;SDS011;10981;45.462;10.974;2023-03-31T07:48:48;55.90;;;30.50;;
21639;SDS011;10981;45.462;10.974;2023-03-31T07:51:18;54.47;;;30.92;;
21639;SDS011;10981;45.462;10.974;2023-03-31T07:53:48;56.78;;;29.98;;
21639;SDS011;10981;45.462;10.974;2023-03-31T07:56:19;47.42;;;29.60;;
21639;SDS011;10981;45.462;10.974;2023-03-31T07:58:49;49.38;;;29.80;;
21639;SDS011;10981;45.462;10.974;2023-03-31T08:01:22;47.17;;;28.02;;
21639;SDS011;10981;45.462;10.974;2023-03-31T08:03:52;45.20;;;28.48;;
21639;SDS011;10981;45.462;10.974;2023-03-31T08:06:22;52.03;;;28.05;;
21639;SDS011;10981;45.462;10.974;2023-03-31T08:08:52;47.63;;;27.10;;
21639;SDS011;10981;45.462;10.974;2023-03-31T08:11:20;43.90;;;26.95;;
21639;SDS011;10981;45.462;10.974;2023-03-31T08:13:48;45.75;;;25.83;;
21639;SDS011;10981;45.462;10.974;2023-03-31T08:16:17;46.22;;;25.77;;
21639;SDS011;10981;45.462;10.974;2023-03-31T08:18:45;43.63;;;24.40;;
21639;SDS011;10981;45.462;10.974;2023-03-31T08:21:13;42.75;;;23.45;;
21639;SDS011;10981;45.462;10.974;2023-03-31T08:23:42;40.85;;;24.77;;
21639;SDS011;10981;45.462;10.974;2023-03-31T08:26:11;40.67;;;23.45;;
21639;SDS011;10981;45.462;10.974;2023-03-31T08:28:47;39.72;;;22.90;;
21639;SDS011;10981;45.462;10.974;2023-03-31T08:31:17;40.95;;;23.00;;
21639;SDS011;10981;45.462;10.974;2023-03-31T08:33:47;38.30;;;22.30;;
21639;SDS011;10981;45.462;10.974;2023-03-31T08:36:16;38.85;;;22.98;;
21639;SDS011;10981;45.462;10.974;2023-03-31T08:38:44;41.30;;;22.45;;
21639;SDS011;10981;45.462;10.974;2023-03-31T08:44:25;42.58;;;23.83;;
21639;SDS011;10981;45.462;10.974;2023-03-31T08:46:57;37.72;;;22.98;;
21639;SDS011;10981;45.462;10.974;2023-03-31T08:49:30;40.03;;;23.48;;
21639;SDS011;10981;45.462;10.974;2023-03-31T08:52:17;38.30;;;23.27;;
21639;SDS011;10981;45.462;10.974;2023-03-31T08:54:51;41.30;;;24.00;;
21639;SDS011;10981;45.462;10.974;2023-03-31T08:57:36;42.42;;;24.08;;
21639;SDS011;10981;45.462;10.974;2023-03-31T09:00:20;40.72;;;24.23;;
21639;SDS011;10981;45.462;10.974;2023-03-31T09:06:03;45.38;;;27.02;;
21639;SDS011;10981;45.462;10.974;2023-03-31T09:08:46;50.72;;;24.77;;
21639;SDS011;10981;45.462;10.974;2023-03-31T09:16:44;48.00;;;26.10;;
21639;SDS011;10981;45.462;10.974;2023-03-31T09:19:32;49.72;;;27.05;;
21639;SDS011;10981;45.462;10.974;2023-03-31T09:22:05;49.30;;;28.00;;
21639;SDS011;10981;45.462;10.974;2023-03-31T09:27:32;45.05;;;26.33;;
21639;SDS011;10981;45.462;10.974;2023-03-31T09:32:31;44.80;;;27.38;;
21639;SDS011;10981;45.462;10.974;2023-03-31T09:35:01;56.45;;;29.85;;
21639;SDS011;10981;45.462;10.974;2023-03-31T09:37:43;49.45;;;30.63;;
21639;SDS011;10981;45.462;10.974;2023-03-31T09:40:18;49.95;;;30.10;;
21639;SDS011;10981;45.462;10.974;2023-03-31T09:42:56;47.30;;;28.95;;
21639;SDS011;10981;45.462;10.974;2023-03-31T09:45:36;44.13;;;28.98;;
21639;SDS011;10981;45.462;10.974;2023-03-31T09:48:06;63.13;;;32.30;;
21639;SDS011;10981;45.462;10.974;2023-03-31T09:50:42;52.63;;;30.65;;
21639;SDS011;10981;45.462;10.974;2023-03-31T09:53:18;53.55;;;31.70;;
21639;SDS011;10981;45.462;10.974;2023-03-31T09:55:53;57.30;;;33.75;;
21639;SDS011;10981;45.462;10.974;2023-03-31T09:58:26;57.38;;;32.60;;
21639;SDS011;10981;45.462;10.974;2023-03-31T10:00:59;55.17;;;32.42;;
21639;SDS011;10981;45.462;10.974;2023-03-31T10:03:32;57.70;;;32.95;;
21639;SDS011;10981;45.462;10.974;2023-03-31T10:06:13;65.70;;;34.47;;
21639;SDS011;10981;45.462;10.974;2023-03-31T10:09:03;58.90;;;33.05;;
21639;SDS011;10981;45.462;10.974;2023-03-31T10:11:31;54.63;;;33.22;;
21639;SDS011;10981;45.462;10.974;2023-03-31T10:14:10;56.80;;;31.95;;
21639;SDS011;10981;45.462;10.974;2023-03-31T10:21:45;54.05;;;32.33;;
21639;SDS011;10981;45.462;10.974;2023-03-31T10:24:18;49.53;;;31.50;;
21639;SDS011;10981;45.462;10.974;2023-03-31T10:26:48;54.90;;;30.08;;
21639;SDS011;10981;45.462;10.974;2023-03-31T10:29:21;55.20;;;31.50;;
21639;SDS011;10981;45.462;10.974;2023-03-31T10:32:10;56.25;;;31.30;;
21639;SDS011;10981;45.462;10.974;2023-03-31T10:34:46;49.22;;;31.75;;
21639;SDS011;10981;45.462;10.974;2023-03-31T10:37:16;50.03;;;30.38;;
21639;SDS011;10981;45.462;10.974;2023-03-31T10:39:59;53.45;;;32.20;;
21639;SDS011;10981;45.462;10.974;2023-03-31T10:42:32;54.03;;;30.90;;
21639;SDS011;10981;45.462;10.974;2023-03-31T10:48:04;53.83;;;32.67;;
21639;SDS011;10981;45.462;10.974;2023-03-31T10:50:43;54.05;;;32.40;;
21639;SDS011;10981;45.462;10.974;2023-03-31T10:53:13;58.28;;;30.95;;
21639;SDS011;10981;45.462;10.974;2023-03-31T11:01:07;54.80;;;32.38;;
21639;SDS011;10981;45.462;10.974;2023-03-31T11:03:53;55.30;;;31.65;;
21639;SDS011;10981;45.462;10.974;2023-03-31T11:12:33;56.92;;;31.73;;
21639;SDS011;10981;45.462;10.974;2023-03-31T11:15:21;52.97;;;31.60;;
21639;SDS011;10981;45.462;10.974;2023-03-31T11:20:54;52.03;;;30.30;;
21639;SDS011;10981;45.462;10.974;2023-03-31T11:31:32;46.10;;;28.50;;
21639;SDS011;10981;45.462;10.974;2023-03-31T11:42:24;44.05;;;24.52;;
21639;SDS011;10981;45.462;10.974;2023-03-31T11:45:00;46.53;;;26.45;;
21639;SDS011;10981;45.462;10.974;2023-03-31T11:47:41;42.92;;;25.10;;
21639;SDS011;10981;45.462;10.974;2023-03-31T11:50:17;47.80;;;24.05;;
21639;SDS011;10981;45.462;10.974;2023-03-31T11:53:12;36.78;;;21.85;;
21639;SDS011;10981;45.462;10.974;2023-03-31T11:55:47;31.75;;;20.40;;
21639;SDS011;10981;45.462;10.974;2023-03-31T11:58:23;29.30;;;18.10;;
21639;SDS011;10981;45.462;10.974;2023-03-31T12:03:42;25.58;;;14.23;;
21639;SDS011;10981;45.462;10.974;2023-03-31T12:06:21;27.98;;;14.35;;
21639;SDS011;10981;45.462;10.974;2023-03-31T12:11:30;20.33;;;14.07;;
21639;SDS011;10981;45.462;10.974;2023-03-31T12:14:19;32.92;;;14.80;;
21639;SDS011;10981;45.462;10.974;2023-03-31T12:17:09;27.35;;;14.77;;
21639;SDS011;10981;45.462;10.974;2023-03-31T12:24:54;25.15;;;14.18;;
21639;SDS011;10981;45.462;10.974;2023-03-31T12:32:33;28.92;;;16.55;;
21639;SDS011;10981;45.462;10.974;2023-03-31T12:35:13;30.27;;;15.57;;
21639;SDS011;10981;45.462;10.974;2023-03-31T12:43:41;25.30;;;15.20;;
21639;SDS011;10981;45.462;10.974;2023-03-31T12:49:11;28.80;;;16.63;;
21639;SDS011;10981;45.462;10.974;2023-03-31T13:06:55;25.92;;;16.58;;
21639;SDS011;10981;45.462;10.974;2023-03-31T13:12:13;33.03;;;17.50;;
21639;SDS011;10981;45.462;10.974;2023-03-31T13:14:45;32.63;;;18.10;;
21639;SDS011;10981;45.462;10.974;2023-03-31T13:17:25;30.02;;;18.02;;
21639;SDS011;10981;45.462;10.974;2023-03-31T13:19:54;31.42;;;17.02;;
21639;SDS011;10981;45.462;10.974;2023-03-31T13:22:44;27.52;;;17.55;;
21639;SDS011;10981;45.462;10.974;2023-03-31T13:27:57;28.17;;;17.90;;
21639;SDS011;10981;45.462;10.974;2023-03-31T13:36:07;29.98;;;18.38;;
21639;SDS011;10981;45.462;10.974;2023-03-31T13:38:51;26.25;;;18.33;;
21639;SDS011;10981;45.462;10.974;2023-03-31T14:07:11;25.13;;;16.48;;
21639;SDS011;10981;45.462;10.974;2023-03-31T14:09:50;33.30;;;17.85;;
21639;SDS011;10981;45.462;10.974;2023-03-31T14:14:51;28.60;;;17.67;;
21639;SDS011;10981;45.462;10.974;2023-03-31T14:17:39;32.03;;;18.35;;
21639;SDS011;10981;45.462;10.974;2023-03-31T14:20:23;30.63;;;19.95;;
21639;SDS011;10981;45.462;10.974;2023-03-31T14:26:12;28.00;;;15.43;;
21639;SDS011;10981;45.462;10.974;2023-03-31T14:31:40;24.73;;;13.60;;
21639;SDS011;10981;45.462;10.974;2023-03-31T14:37:05;24.33;;;14.23;;
21639;SDS011;10981;45.462;10.974;2023-03-31T14:39:39;26.75;;;13.75;;
21639;SDS011;10981;45.462;10.974;2023-03-31T14:42:11;26.83;;;12.88;;
21639;SDS011;10981;45.462;10.974;2023-03-31T14:44:44;20.35;;;12.50;;
21639;SDS011;10981;45.462;10.974;2023-03-31T14:49:46;26.15;;;13.27;;
21639;SDS011;10981;45.462;10.974;2023-03-31T14:52:29;28.27;;;12.45;;
21639;SDS011;10981;45.462;10.974;2023-03-31T14:54:59;17.95;;;11.35;;
21639;SDS011;10981;45.462;10.974;2023-03-31T14:57:29;21.55;;;12.52;;
21639;SDS011;10981;45.462;10.974;2023-03-31T15:00:02;26.73;;;12.70;;
21639;SDS011;10981;45.462;10.974;2023-03-31T15:02:40;20.65;;;12.63;;
21639;SDS011;10981;45.462;10.974;2023-03-31T15:05:17;27.98;;;12.57;;
21639;SDS011;10981;45.462;10.974;2023-03-31T15:07:55;25.60;;;12.98;;
21639;SDS011;10981;45.462;10.974;2023-03-31T15:10:24;20.60;;;12.05;;
21639;SDS011;10981;45.462;10.974;2023-03-31T15:13:00;22.08;;;11.63;;
21639;SDS011;10981;45.462;10.974;2023-03-31T15:15:35;21.13;;;11.60;;
21639;SDS011;10981;45.462;10.974;2023-03-31T15:18:08;20.15;;;11.15;;
21639;SDS011;10981;45.462;10.974;2023-03-31T15:20:44;21.42;;;11.95;;
21639;SDS011;10981;45.462;10.974;2023-03-31T15:23:22;22.80;;;11.45;;
21639;SDS011;10981;45.462;10.974;2023-03-31T15:28:26;16.30;;;10.45;;
21639;SDS011;10981;45.462;10.974;2023-03-31T15:31:03;22.10;;;10.65;;
21639;SDS011;10981;45.462;10.974;2023-03-31T15:33:36;23.23;;;10.93;;
21639;SDS011;10981;45.462;10.974;2023-03-31T15:36:10;26.63;;;11.23;;
21639;SDS011;10981;45.462;10.974;2023-03-31T15:38:39;21.85;;;11.77;;
21639;SDS011;10981;45.462;10.974;2023-03-31T15:41:13;18.75;;;10.68;;
21639;SDS011;10981;45.462;10.974;2023-03-31T15:43:47;16.92;;;10.05;;
21639;SDS011;10981;45.462;10.974;2023-03-31T15:49:17;26.48;;;11.93;;
21639;SDS011;10981;45.462;10.974;2023-03-31T15:51:48;22.20;;;12.82;;
21639;SDS011;10981;45.462;10.974;2023-03-31T15:56:59;31.35;;;13.50;;
21639;SDS011;10981;45.462;10.974;2023-03-31T15:59:42;25.77;;;14.48;;
21639;SDS011;10981;45.462;10.974;2023-03-31T16:02:22;32.53;;;14.40;;
21639;SDS011;10981;45.462;10.974;2023-03-31T16:05:05;27.52;;;15.18;;
21639;SDS011;10981;45.462;10.974;2023-03-31T16:07:50;32.78;;;15.23;;
21639;SDS011;10981;45.462;10.974;2023-03-31T16:10:22;32.92;;;17.77;;
21639;SDS011;10981;45.462;10.974;2023-03-31T16:13:00;34.92;;;19.70;;
21639;SDS011;10981;45.462;10.974;2023-03-31T16:15:44;30.50;;;18.40;;
21639;SDS011;10981;45.462;10.974;2023-03-31T16:18:32;37.58;;;20.35;;
21639;SDS011;10981;45.462;10.974;2023-03-31T16:21:04;27.92;;;17.73;;
21639;SDS011;10981;45.462;10.974;2023-03-31T16:23:36;44.03;;;24.75;;
21639;SDS011;10981;45.462;10.974;2023-03-31T16:26:07;100.38;;;52.92;;
21639;SDS011;10981;45.462;10.974;2023-03-31T16:28:37;69.75;;;39.08;;
21639;SDS011;10981;45.462;10.974;2023-03-31T16:31:26;41.38;;;23.92;;
21639;SDS011;10981;45.462;10.974;2023-03-31T16:33:57;42.85;;;20.10;;
21639;SDS011;10981;45.462;10.974;2023-03-31T16:36:26;32.35;;;19.92;;
21639;SDS011;10981;45.462;10.974;2023-03-31T16:38:55;35.80;;;19.92;;
21639;SDS011;10981;45.462;10.974;2023-03-31T16:44:05;31.17;;;18.27;;
21639;SDS011;10981;45.462;10.974;2023-03-31T16:46:50;37.03;;;21.42;;
21639;SDS011;10981;45.462;10.974;2023-03-31T16:49:21;57.25;;;31.20;;
21639;SDS011;10981;45.462;10.974;2023-03-31T16:51:50;47.88;;;27.15;;
21639;SDS011;10981;45.462;10.974;2023-03-31T16:54:18;48.45;;;23.58;;
21639;SDS011;10981;45.462;10.974;2023-03-31T16:56:47;42.83;;;22.13;;
21639;SDS011;10981;45.462;10.974;2023-03-31T16:59:15;38.45;;;22.00;;
21639;SDS011;10981;45.462;10.974;2023-03-31T17:01:43;34.35;;;20.65;;
21639;SDS011;10981;45.462;10.974;2023-03-31T17:04:12;30.17;;;18.60;;
21639;SDS011;10981;45.462;10.974;2023-03-31T17:06:40;32.85;;;19.05;;
21639;SDS011;10981;45.462;10.974;2023-03-31T17:09:08;31.85;;;19.17;;
21639;SDS011;10981;45.462;10.974;2023-03-31T17:11:37;37.33;;;20.58;;
21639;SDS011;10981;45.462;10.974;2023-03-31T17:14:08;31.85;;;18.98;;
21639;SDS011;10981;45.462;10.974;2023-03-31T17:16:37;31.55;;;19.20;;
21639;SDS011;10981;45.462;10.974;2023-03-31T17:19:14;36.80;;;21.20;;
21639;SDS011;10981;45.462;10.974;2023-03-31T17:21:44;37.90;;;20.92;;
21639;SDS011;10981;45.462;10.974;2023-03-31T17:24:12;43.85;;;23.88;;
21639;SDS011;10981;45.462;10.974;2023-03-31T17:26:41;47.50;;;25.95;;
21639;SDS011;10981;45.462;10.974;2023-03-31T17:29:11;40.05;;;22.55;;
21639;SDS011;10981;45.462;10.974;2023-03-31T17:31:42;45.30;;;24.33;;
21639;SDS011;10981;45.462;10.974;2023-03-31T17:34:10;55.72;;;27.77;;
21639;SDS011;10981;45.462;10.974;2023-03-31T17:36:38;53.58;;;25.67;;
21639;SDS011;10981;45.462;10.974;2023-03-31T17:39:10;38.53;;;21.55;;
21639;SDS011;10981;45.462;10.974;2023-03-31T17:41:38;32.03;;;19.52;;
21639;SDS011;10981;45.462;10.974;2023-03-31T17:44:06;42.00;;;22.92;;
21639;SDS011;10981;45.462;10.974;2023-03-31T17:46:35;46.67;;;25.35;;
21639;SDS011;10981;45.462;10.974;2023-03-31T17:49:04;44.83;;;25.70;;
21639;SDS011;10981;45.462;10.974;2023-03-31T17:51:32;37.03;;;22.30;;
21639;SDS011;10981;45.462;10.974;2023-03-31T17:54:01;39.20;;;21.48;;
21639;SDS011;10981;45.462;10.974;2023-03-31T17:56:30;40.20;;;21.73;;
21639;SDS011;10981;45.462;10.974;2023-03-31T17:58:58;35.33;;;20.33;;
21639;SDS011;10981;45.462;10.974;2023-03-31T18:01:26;34.63;;;19.55;;
21639;SDS011;10981;45.462;10.974;2023-03-31T18:03:55;33.88;;;19.20;;
21639;SDS011;10981;45.462;10.974;2023-03-31T18:06:25;32.65;;;19.55;;